createdAt,value
2023-05-08T00:00:23.844Z,13.00
2023-05-08T00:00:53.641Z,12.88
2023-05-08T00:01:26.224Z,12.88
2023-05-08T00:01:57.521Z,12.88
2023-05-08T00:02:30.590Z,12.88
2023-05-08T00:03:01.558Z,12.88
2023-05-08T00:03:34.569Z,12.88
2023-05-08T00:04:05.630Z,12.88
2023-05-08T00:04:38.288Z,12.88
2023-05-08T00:05:09.661Z,12.88
2023-05-08T00:05:42.244Z,12.88
2023-05-08T00:06:13.361Z,12.88
2023-05-08T00:06:46.226Z,12.88
2023-05-08T00:07:17.519Z,12.88
2023-05-08T00:07:50.453Z,12.88
2023-05-08T00:08:21.608Z,12.88
2023-05-08T00:08:54.099Z,12.88
2023-05-08T00:09:25.527Z,12.88
2023-05-08T00:09:58.213Z,12.88
2023-05-08T00:10:29.809Z,12.88
2023-05-08T00:11:02.283Z,12.88
2023-05-08T00:11:33.544Z,12.88
2023-05-08T00:12:06.344Z,12.88
2023-05-08T00:12:37.475Z,12.88
2023-05-08T00:13:10.295Z,12.88
2023-05-08T00:13:41.548Z,12.88
2023-05-08T00:14:14.165Z,12.88
2023-05-08T00:14:45.458Z,12.88
2023-05-08T00:15:19.098Z,12.88
2023-05-08T00:15:49.707Z,12.77
2023-05-08T00:16:22.255Z,12.77
2023-05-08T00:16:53.619Z,12.77
2023-05-08T00:17:26.362Z,12.77
2023-05-08T00:17:57.410Z,12.77
2023-05-08T00:18:30.231Z,12.77
2023-05-08T00:19:01.646Z,12.77
2023-05-08T00:19:34.324Z,12.77
2023-05-08T00:20:05.547Z,12.77
2023-05-08T00:20:38.151Z,12.77
2023-05-08T00:21:09.430Z,12.77
2023-05-08T00:21:42.190Z,12.77
2023-05-08T00:22:13.500Z,12.77
2023-05-08T00:22:46.338Z,12.77
2023-05-08T00:23:17.549Z,12.77
2023-05-08T00:23:50.264Z,12.77
2023-05-08T00:24:21.448Z,12.77
2023-05-08T00:24:54.283Z,12.77
2023-05-08T00:25:25.599Z,12.77
2023-05-08T00:25:58.121Z,12.77
2023-05-08T00:26:29.823Z,12.77
2023-05-08T00:27:02.348Z,12.77
2023-05-08T00:27:33.379Z,12.77
2023-05-08T00:28:06.207Z,12.77
2023-05-08T00:28:37.474Z,12.77
2023-05-08T00:29:10.132Z,12.77
2023-05-08T00:29:41.422Z,12.72
2023-05-08T00:30:15.377Z,12.72
2023-05-08T00:30:45.525Z,12.72
2023-05-08T00:31:18.217Z,12.72
2023-05-08T00:31:49.536Z,12.72
2023-05-08T00:32:22.683Z,12.72
2023-05-08T00:32:53.537Z,12.72
2023-05-08T00:33:26.153Z,12.72
2023-05-08T00:33:57.484Z,12.72
2023-05-08T00:34:30.398Z,12.72
2023-05-08T00:35:01.799Z,12.61
2023-05-08T00:35:34.217Z,12.61
2023-05-08T00:36:05.657Z,12.61
2023-05-08T00:36:38.351Z,12.61
2023-05-08T00:37:09.467Z,12.61
2023-05-08T00:37:42.486Z,12.61
2023-05-08T00:38:13.392Z,12.61
2023-05-08T00:38:46.289Z,12.61
2023-05-08T00:39:17.524Z,12.61
2023-05-08T00:39:50.517Z,12.61
2023-05-08T00:40:21.631Z,12.50
2023-05-08T00:40:54.445Z,12.50
2023-05-08T00:41:25.603Z,12.50
2023-05-08T00:41:58.459Z,12.50
2023-05-08T00:42:29.505Z,12.50
2023-05-08T00:43:02.448Z,12.50
2023-05-08T00:43:33.599Z,12.50
2023-05-08T00:44:06.345Z,12.50
2023-05-08T00:44:37.452Z,12.50
2023-05-08T00:45:11.872Z,12.50
2023-05-08T00:45:41.498Z,12.50
2023-05-08T00:46:14.334Z,12.50
2023-05-08T00:46:45.612Z,12.50
2023-05-08T00:47:18.318Z,12.50
2023-05-08T00:47:49.594Z,12.50
2023-05-08T00:48:22.320Z,12.50
2023-05-08T00:48:53.563Z,12.38
2023-05-08T00:49:26.350Z,12.38
2023-05-08T00:49:57.520Z,12.38
2023-05-08T00:50:30.606Z,12.38
2023-05-08T00:51:01.484Z,12.38
2023-05-08T00:51:34.291Z,12.38
2023-05-08T00:52:05.590Z,12.38
2023-05-08T00:52:38.324Z,12.38
2023-05-08T00:53:09.347Z,12.38
2023-05-08T00:53:42.214Z,12.38
2023-05-08T00:54:13.584Z,12.27
2023-05-08T00:54:46.248Z,12.27
2023-05-08T00:55:17.779Z,12.27
2023-05-08T00:55:50.484Z,12.27
2023-05-08T00:56:21.596Z,12.27
2023-05-08T00:56:54.506Z,12.27
2023-05-08T00:57:25.555Z,12.27
2023-05-08T00:57:58.319Z,12.27
2023-05-08T00:58:29.398Z,12.27
2023-05-08T00:59:02.549Z,12.27
2023-05-08T00:59:33.510Z,12.27
2023-05-08T01:00:07.732Z,12.27
2023-05-08T01:00:37.349Z,12.22
2023-05-08T01:01:10.582Z,12.22
2023-05-08T01:01:41.426Z,12.22
2023-05-08T01:02:14.441Z,12.22
2023-05-08T01:02:45.605Z,12.22
2023-05-08T01:03:18.617Z,12.22
2023-05-08T01:03:49.653Z,12.22
2023-05-08T01:04:23.008Z,12.22
2023-05-08T01:04:53.542Z,12.22
2023-05-08T01:05:26.423Z,12.22
2023-05-08T01:05:57.393Z,12.22
2023-05-08T01:06:30.278Z,12.22
2023-05-08T01:07:01.702Z,12.22
2023-05-08T01:07:34.556Z,12.22
2023-05-08T01:08:05.455Z,12.22
2023-05-08T01:08:38.467Z,12.22
2023-05-08T01:09:09.386Z,12.11
2023-05-08T01:09:43.117Z,12.11
2023-05-08T01:10:14.146Z,12.11
2023-05-08T01:10:46.367Z,12.11
2023-05-08T01:11:17.538Z,12.11
2023-05-08T01:11:50.026Z,12.11
2023-05-08T01:12:21.629Z,12.11
2023-05-08T01:12:54.331Z,12.11
2023-05-08T01:13:25.519Z,12.11
2023-05-08T01:13:58.390Z,12.11
2023-05-08T01:14:29.675Z,12.11
2023-05-08T01:15:03.704Z,12.11
2023-05-08T01:15:33.641Z,12.11
2023-05-08T01:16:06.598Z,12.11
2023-05-08T01:16:37.332Z,12.11
2023-05-08T01:17:10.294Z,12.11
2023-05-08T01:17:41.534Z,12.00
2023-05-08T01:18:14.316Z,12.00
2023-05-08T01:18:45.446Z,12.00
2023-05-08T01:19:18.083Z,12.00
2023-05-08T01:19:49.633Z,12.00
2023-05-08T01:20:22.420Z,12.00
2023-05-08T01:20:53.613Z,12.00
2023-05-08T01:21:26.235Z,12.00
2023-05-08T01:21:57.403Z,12.00
2023-05-08T01:22:30.473Z,12.00
2023-05-08T01:23:01.620Z,12.00
2023-05-08T01:23:34.412Z,12.00
2023-05-08T01:24:05.481Z,12.00
2023-05-08T01:24:39.370Z,12.00
2023-05-08T01:25:10.002Z,12.00
2023-05-08T01:25:42.349Z,12.00
2023-05-08T01:26:13.559Z,12.00
2023-05-08T01:26:46.374Z,12.00
2023-05-08T01:27:17.688Z,12.00
2023-05-08T01:27:50.390Z,12.00
2023-05-08T01:28:21.510Z,12.00
2023-05-08T01:28:54.553Z,12.00
2023-05-08T01:29:25.682Z,11.88
2023-05-08T01:29:58.378Z,11.88
2023-05-08T01:30:30.813Z,11.88
2023-05-08T01:31:02.908Z,11.88
2023-05-08T01:31:33.419Z,11.88
2023-05-08T01:31:49.603Z,11.88
2023-05-08T01:32:21.600Z,11.88
2023-05-08T01:32:53.680Z,11.88
2023-05-08T01:33:25.580Z,11.88
2023-05-08T01:33:57.721Z,11.88
2023-05-08T01:34:29.464Z,11.88
2023-05-08T01:35:01.952Z,11.88
2023-05-08T01:35:33.623Z,11.88
2023-05-08T01:36:05.513Z,11.88
2023-05-08T01:36:22.491Z,11.88
2023-05-08T01:36:53.463Z,11.88
2023-05-08T01:37:26.453Z,11.88
2023-05-08T01:37:57.599Z,11.88
2023-05-08T01:38:30.280Z,11.88
2023-05-08T01:39:01.521Z,11.88
2023-05-08T01:39:34.554Z,11.88
2023-05-08T01:40:05.710Z,11.88
2023-05-08T01:40:38.279Z,11.88
2023-05-08T01:41:09.478Z,11.88
2023-05-08T01:41:42.427Z,11.88
2023-05-08T01:42:13.673Z,11.88
2023-05-08T01:42:46.364Z,11.88
2023-05-08T01:43:17.541Z,11.88
2023-05-08T01:43:50.418Z,11.88
2023-05-08T01:44:21.290Z,11.88
2023-05-08T01:44:54.254Z,11.88
2023-05-08T01:45:26.744Z,11.88
2023-05-08T01:45:58.470Z,11.88
2023-05-08T01:46:29.556Z,11.88
2023-05-08T01:47:02.605Z,11.88
2023-05-08T01:47:33.534Z,11.88
2023-05-08T01:48:06.402Z,11.88
2023-05-08T01:48:37.475Z,11.88
2023-05-08T01:49:10.507Z,11.88
2023-05-08T01:49:41.661Z,11.88
2023-05-08T01:50:14.862Z,11.88
2023-05-08T01:50:45.529Z,11.77
2023-05-08T01:51:18.355Z,11.77
2023-05-08T01:51:49.511Z,11.77
2023-05-08T01:52:22.508Z,11.77
2023-05-08T01:52:53.572Z,11.77
2023-05-08T01:53:26.138Z,11.77
2023-05-08T01:53:57.448Z,11.88
2023-05-08T01:54:30.352Z,11.88
2023-05-08T01:55:01.971Z,11.88
2023-05-08T01:55:34.160Z,11.88
2023-05-08T01:56:05.610Z,11.88
2023-05-08T01:56:38.263Z,11.88
2023-05-08T01:57:09.654Z,11.88
2023-05-08T01:57:42.442Z,11.88
2023-05-08T01:58:13.627Z,11.88
2023-05-08T01:58:46.571Z,11.88
2023-05-08T01:59:17.439Z,11.88
2023-05-08T01:59:50.231Z,11.88
2023-05-08T02:00:23.845Z,11.88
2023-05-08T02:00:54.476Z,11.88
2023-05-08T02:01:25.915Z,11.88
2023-05-08T02:01:58.512Z,11.88
2023-05-08T02:02:29.524Z,11.88
2023-05-08T02:03:02.426Z,11.88
2023-05-08T02:03:33.744Z,11.88
2023-05-08T02:04:06.491Z,11.88
2023-05-08T02:04:37.425Z,11.88
2023-05-08T02:05:10.482Z,11.88
2023-05-08T02:05:41.587Z,11.88
2023-05-08T02:06:14.356Z,11.88
2023-05-08T02:06:45.455Z,11.88
2023-05-08T02:07:18.432Z,11.88
2023-05-08T02:07:49.566Z,11.77
2023-05-08T02:08:22.345Z,11.77
2023-05-08T02:08:53.531Z,11.88
2023-05-08T02:09:26.556Z,11.88
2023-05-08T02:09:57.496Z,11.77
2023-05-08T02:10:30.836Z,11.77
2023-05-08T02:11:01.672Z,11.77
2023-05-08T02:11:34.432Z,11.77
2023-05-08T02:12:05.463Z,11.77
2023-05-08T02:12:38.466Z,11.77
2023-05-08T02:13:09.692Z,11.77
2023-05-08T02:13:42.177Z,11.77
2023-05-08T02:14:13.594Z,11.77
2023-05-08T02:14:46.398Z,11.77
2023-05-08T02:15:18.496Z,11.77
2023-05-08T02:15:50.488Z,11.77
2023-05-08T02:16:21.591Z,11.77
2023-05-08T02:16:54.354Z,11.77
2023-05-08T02:17:25.449Z,11.77
2023-05-08T02:17:58.347Z,11.77
2023-05-08T02:18:29.564Z,11.77
2023-05-08T02:19:02.548Z,11.77
2023-05-08T02:19:33.538Z,11.77
2023-05-08T02:20:06.704Z,11.77
2023-05-08T02:20:37.570Z,11.77
2023-05-08T02:21:10.226Z,11.77
2023-05-08T02:21:41.541Z,11.77
2023-05-08T02:22:14.463Z,11.77
2023-05-08T02:22:45.661Z,11.77
2023-05-08T02:23:19.269Z,11.77
2023-05-08T02:23:49.562Z,11.77
2023-05-08T02:24:22.424Z,11.77
2023-05-08T02:24:53.519Z,11.77
2023-05-08T02:25:26.603Z,11.77
2023-05-08T02:25:57.563Z,11.77
2023-05-08T02:26:30.400Z,11.77
2023-05-08T02:27:01.548Z,11.72
2023-05-08T02:27:34.448Z,11.72
2023-05-08T02:28:05.575Z,11.72
2023-05-08T02:28:38.401Z,11.72
2023-05-08T02:29:09.579Z,11.72
2023-05-08T02:29:42.409Z,11.72
2023-05-08T02:30:14.608Z,11.72
2023-05-08T02:30:46.472Z,11.72
2023-05-08T02:31:17.552Z,11.72
2023-05-08T02:31:50.229Z,11.72
2023-05-08T02:32:21.565Z,11.72
2023-05-08T02:32:54.462Z,11.72
2023-05-08T02:33:25.626Z,11.72
2023-05-08T02:33:58.319Z,11.72
2023-05-08T02:34:29.445Z,11.72
2023-05-08T02:35:03.799Z,11.72
2023-05-08T02:35:33.437Z,11.61
2023-05-08T02:36:06.248Z,11.61
2023-05-08T02:36:37.536Z,11.61
2023-05-08T02:37:10.647Z,11.61
2023-05-08T02:37:41.416Z,11.61
2023-05-08T02:38:14.420Z,11.61
2023-05-08T02:38:45.610Z,11.61
2023-05-08T02:39:18.401Z,11.61
2023-05-08T02:39:49.449Z,11.61
2023-05-08T02:40:22.485Z,11.61
2023-05-08T02:40:53.435Z,11.50
2023-05-08T02:41:26.376Z,11.50
2023-05-08T02:41:57.507Z,11.50
2023-05-08T02:42:30.384Z,11.50
2023-05-08T02:43:01.456Z,11.50
2023-05-08T02:43:34.204Z,11.50
2023-05-08T02:44:05.583Z,11.61
2023-05-08T02:44:38.181Z,11.61
2023-05-08T02:45:10.838Z,11.50
2023-05-08T02:45:42.349Z,11.50
2023-05-08T02:46:13.809Z,11.50
2023-05-08T02:46:46.422Z,11.50
2023-05-08T02:47:17.662Z,11.50
2023-05-08T02:47:50.365Z,11.50
2023-05-08T02:48:21.454Z,11.50
2023-05-08T02:48:55.904Z,11.50
2023-05-08T02:49:25.584Z,11.50
2023-05-08T02:49:58.276Z,11.50
2023-05-08T02:50:29.797Z,11.50
2023-05-08T02:51:02.392Z,11.50
2023-05-08T02:51:33.688Z,11.38
2023-05-08T02:52:07.935Z,11.38
2023-05-08T02:52:37.593Z,11.38
2023-05-08T02:53:10.389Z,11.38
2023-05-08T02:53:41.594Z,11.38
2023-05-08T02:54:14.337Z,11.38
2023-05-08T02:54:45.510Z,11.38
2023-05-08T02:55:18.455Z,11.38
2023-05-08T02:55:49.452Z,11.38
2023-05-08T02:56:22.265Z,11.38
2023-05-08T02:56:53.514Z,11.38
2023-05-08T02:57:26.368Z,11.38
2023-05-08T02:57:57.543Z,11.38
2023-05-08T02:58:30.278Z,11.38
2023-05-08T02:59:01.604Z,11.27
2023-05-08T02:59:34.109Z,11.27
2023-05-08T03:00:06.973Z,11.27
2023-05-08T03:00:38.449Z,11.27
2023-05-08T03:01:09.517Z,11.27
2023-05-08T03:01:42.302Z,11.27
2023-05-08T03:02:13.600Z,11.27
2023-05-08T03:02:46.364Z,11.27
2023-05-08T03:03:17.551Z,11.27
2023-05-08T03:03:50.346Z,11.27
2023-05-08T03:04:21.633Z,11.27
2023-05-08T03:04:54.338Z,11.27
2023-05-08T03:05:25.817Z,11.27
2023-05-08T03:05:58.230Z,11.27
2023-05-08T03:06:29.363Z,11.27
2023-05-08T03:07:02.310Z,11.27
2023-05-08T03:07:33.496Z,11.27
2023-05-08T03:08:06.543Z,11.27
2023-05-08T03:08:37.430Z,11.22
2023-05-08T03:09:10.250Z,11.22
2023-05-08T03:09:41.597Z,11.22
2023-05-08T03:10:16.379Z,11.22
2023-05-08T03:10:45.541Z,11.22
2023-05-08T03:11:18.227Z,11.22
2023-05-08T03:11:49.481Z,11.22
2023-05-08T03:12:22.318Z,11.22
2023-05-08T03:12:53.455Z,11.22
2023-05-08T03:13:26.367Z,11.22
2023-05-08T03:13:57.564Z,11.11
2023-05-08T03:14:30.206Z,11.11
2023-05-08T03:15:03.042Z,11.11
2023-05-08T03:15:34.531Z,11.11
2023-05-08T03:16:05.454Z,11.11
2023-05-08T03:16:21.776Z,11.11
2023-05-08T03:16:53.512Z,11.11
2023-05-08T03:17:25.583Z,11.11
2023-05-08T03:17:57.658Z,11.11
2023-05-08T03:18:29.369Z,11.11
2023-05-08T03:19:02.300Z,11.11
2023-05-08T03:19:33.477Z,11.11
2023-05-08T03:20:06.469Z,11.11
2023-05-08T03:20:37.525Z,11.11
2023-05-08T03:21:10.239Z,11.11
2023-05-08T03:21:41.592Z,11.11
2023-05-08T03:22:14.351Z,11.11
2023-05-08T03:22:45.519Z,11.11
2023-05-08T03:23:18.330Z,11.11
2023-05-08T03:23:49.627Z,11.11
2023-05-08T03:24:22.351Z,11.11
2023-05-08T03:24:53.531Z,11.00
2023-05-08T03:25:26.989Z,11.00
2023-05-08T03:25:57.417Z,11.00
2023-05-08T03:26:30.754Z,11.00
2023-05-08T03:27:01.671Z,11.00
2023-05-08T03:27:34.285Z,11.00
2023-05-08T03:28:05.584Z,11.00
2023-05-08T03:28:39.138Z,11.00
2023-05-08T03:29:09.532Z,11.00
2023-05-08T03:29:42.225Z,11.00
2023-05-08T03:30:14.623Z,11.00
2023-05-08T03:30:46.726Z,11.00
2023-05-08T03:31:17.500Z,11.00
2023-05-08T03:31:50.424Z,11.00
2023-05-08T03:32:21.574Z,11.00
2023-05-08T03:32:54.493Z,11.00
2023-05-08T03:33:25.440Z,11.00
2023-05-08T03:33:58.328Z,11.00
2023-05-08T03:34:29.556Z,10.88
2023-05-08T03:35:02.942Z,10.88
2023-05-08T03:35:33.574Z,10.88
2023-05-08T03:36:06.435Z,10.88
2023-05-08T03:36:37.581Z,10.88
2023-05-08T03:37:10.402Z,10.88
2023-05-08T03:37:41.483Z,10.88
2023-05-08T03:38:15.251Z,10.88
2023-05-08T03:38:45.461Z,10.88
2023-05-08T03:39:18.335Z,10.88
2023-05-08T03:39:49.546Z,10.88
2023-05-08T03:40:23.607Z,10.88
2023-05-08T03:40:53.461Z,10.88
2023-05-08T03:41:26.407Z,10.88
2023-05-08T03:41:57.657Z,10.88
2023-05-08T03:42:30.408Z,10.88
2023-05-08T03:43:01.648Z,10.88
2023-05-08T03:43:34.379Z,10.88
2023-05-08T03:44:05.590Z,10.77
2023-05-08T03:44:38.356Z,10.77
2023-05-08T03:45:10.730Z,10.88
2023-05-08T03:45:42.570Z,10.88
2023-05-08T03:46:13.558Z,10.77
2023-05-08T03:46:46.546Z,10.77
2023-05-08T03:47:17.626Z,10.77
2023-05-08T03:47:50.640Z,10.77
2023-05-08T03:48:21.562Z,10.77
2023-05-08T03:48:54.375Z,10.77
2023-05-08T03:49:25.587Z,10.77
2023-05-08T03:49:58.282Z,10.77
2023-05-08T03:50:30.127Z,10.77
2023-05-08T03:51:02.299Z,10.77
2023-05-08T03:51:33.482Z,10.77
2023-05-08T03:52:06.511Z,10.77
2023-05-08T03:52:37.768Z,10.72
2023-05-08T03:53:10.411Z,10.72
2023-05-08T03:53:41.833Z,10.72
2023-05-08T03:54:14.646Z,10.72
2023-05-08T03:54:45.922Z,10.72
2023-05-08T03:55:19.001Z,10.72
2023-05-08T03:55:49.811Z,10.72
2023-05-08T03:56:24.703Z,10.72
2023-05-08T03:56:53.633Z,10.72
2023-05-08T03:57:26.549Z,10.72
2023-05-08T03:57:57.857Z,10.61
2023-05-08T03:58:30.685Z,10.61
2023-05-08T03:59:01.845Z,10.61
2023-05-08T03:59:34.841Z,10.61
2023-05-08T04:00:07.271Z,10.61
2023-05-08T04:00:39.724Z,10.61
2023-05-08T04:01:09.756Z,10.61
2023-05-08T04:01:42.653Z,10.61
2023-05-08T04:02:13.977Z,10.61
2023-05-08T04:02:46.732Z,10.61
2023-05-08T04:03:17.863Z,10.61
2023-05-08T04:03:50.687Z,10.61
2023-05-08T04:04:21.830Z,10.50
2023-05-08T04:04:54.713Z,10.50
2023-05-08T04:05:26.065Z,10.50
2023-05-08T04:05:58.661Z,10.50
2023-05-08T04:06:35.749Z,10.50
2023-05-08T04:07:02.679Z,10.50
2023-05-08T04:07:33.826Z,10.50
2023-05-08T04:08:06.572Z,10.50
2023-05-08T04:08:37.732Z,10.50
2023-05-08T04:09:10.665Z,10.50
2023-05-08T04:09:41.965Z,10.50
2023-05-08T04:10:14.988Z,10.50
2023-05-08T04:10:45.773Z,10.50
2023-05-08T04:11:19.393Z,10.50
2023-05-08T04:11:49.705Z,10.50
2023-05-08T04:12:22.802Z,10.50
2023-05-08T04:12:53.876Z,10.50
2023-05-08T04:13:26.436Z,10.50
2023-05-08T04:13:57.775Z,10.38
2023-05-08T04:14:30.496Z,10.38
2023-05-08T04:15:03.360Z,10.38
2023-05-08T04:15:34.842Z,10.38
2023-05-08T04:16:05.724Z,10.50
2023-05-08T04:16:38.687Z,10.50
2023-05-08T04:17:09.740Z,10.38
2023-05-08T04:17:43.850Z,10.38
2023-05-08T04:18:13.852Z,10.38
2023-05-08T04:18:46.706Z,10.38
2023-05-08T04:19:17.681Z,10.50
2023-05-08T04:19:50.588Z,10.50
2023-05-08T04:20:22.145Z,10.38
2023-05-08T04:20:54.448Z,10.38
2023-05-08T04:21:25.719Z,10.50
2023-05-08T04:21:58.608Z,10.50
2023-05-08T04:22:29.938Z,10.50
2023-05-08T04:23:02.562Z,10.50
2023-05-08T04:23:33.818Z,10.50
2023-05-08T04:24:06.710Z,10.50
2023-05-08T04:24:37.662Z,10.50
2023-05-08T04:25:11.051Z,10.50
2023-05-08T04:25:41.799Z,10.50
2023-05-08T04:26:15.887Z,10.50
2023-05-08T04:26:45.748Z,10.50
2023-05-08T04:27:18.627Z,10.50
2023-05-08T04:27:49.823Z,10.50
2023-05-08T04:28:22.482Z,10.50
2023-05-08T04:28:53.773Z,10.61
2023-05-08T04:29:26.433Z,10.61
2023-05-08T04:29:57.932Z,10.50
2023-05-08T04:30:31.789Z,10.50
2023-05-08T04:31:01.855Z,10.50
2023-05-08T04:31:34.755Z,10.50
2023-05-08T04:32:05.788Z,10.50
2023-05-08T04:32:22.041Z,10.50
2023-05-08T04:32:53.744Z,10.61
2023-05-08T04:33:25.833Z,10.61
2023-05-08T04:33:57.868Z,10.61
2023-05-08T04:34:29.913Z,10.61
2023-05-08T04:35:02.331Z,10.61
2023-05-08T04:35:33.820Z,10.61
2023-05-08T04:36:05.905Z,10.61
2023-05-08T04:36:37.756Z,10.61
2023-05-08T04:37:10.504Z,10.72
2023-05-08T04:37:41.762Z,10.72
2023-05-08T04:38:14.395Z,10.72
2023-05-08T04:38:45.793Z,10.72
2023-05-08T04:39:18.703Z,10.72
2023-05-08T04:39:49.869Z,10.72
2023-05-08T04:40:24.700Z,10.72
2023-05-08T04:40:53.703Z,10.72
2023-05-08T04:41:26.707Z,10.72
2023-05-08T04:41:57.830Z,10.72
2023-05-08T04:42:30.789Z,10.72
2023-05-08T04:43:01.856Z,10.72
2023-05-08T04:43:34.646Z,10.77
2023-05-08T04:44:05.652Z,10.77
2023-05-08T04:44:38.525Z,10.77
2023-05-08T04:45:11.483Z,10.77
2023-05-08T04:45:43.729Z,10.77
2023-05-08T04:46:13.854Z,10.77
2023-05-08T04:46:46.992Z,10.77
2023-05-08T04:47:17.904Z,10.77
2023-05-08T04:47:50.795Z,10.77
2023-05-08T04:48:21.863Z,10.77
2023-05-08T04:48:54.567Z,10.88
2023-05-08T04:49:25.724Z,10.88
2023-05-08T04:50:00.109Z,10.77
2023-05-08T04:50:30.086Z,10.77
2023-05-08T04:51:02.761Z,10.88
2023-05-08T04:51:33.770Z,10.88
2023-05-08T04:52:06.746Z,11.00
2023-05-08T04:52:37.814Z,11.00
2023-05-08T04:53:10.621Z,11.00
2023-05-08T04:53:41.720Z,11.00
2023-05-08T04:54:14.796Z,11.11
2023-05-08T04:54:45.869Z,11.11
2023-05-08T04:55:18.862Z,11.22
2023-05-08T04:55:49.970Z,11.22
2023-05-08T04:56:22.836Z,11.22
2023-05-08T04:56:53.645Z,11.22
2023-05-08T04:57:26.512Z,11.27
2023-05-08T04:57:57.912Z,11.27
2023-05-08T04:58:30.718Z,11.27
2023-05-08T04:59:01.755Z,11.27
2023-05-08T04:59:34.653Z,11.38
2023-05-08T05:00:07.432Z,11.38
2023-05-08T05:00:38.956Z,11.38
2023-05-08T05:01:09.866Z,11.38
2023-05-08T05:01:42.733Z,11.50
2023-05-08T05:02:13.863Z,11.50
2023-05-08T05:02:46.647Z,11.50
2023-05-08T05:03:17.978Z,11.50
2023-05-08T05:03:50.926Z,11.61
2023-05-08T05:04:21.810Z,11.61
2023-05-08T05:04:54.719Z,11.61
2023-05-08T05:05:26.201Z,11.61
2023-05-08T05:05:58.910Z,11.72
2023-05-08T05:06:29.700Z,11.72
2023-05-08T05:07:02.886Z,11.72
2023-05-08T05:07:33.862Z,11.72
2023-05-08T05:08:06.718Z,11.72
2023-05-08T05:08:37.704Z,11.72
2023-05-08T05:09:10.837Z,11.72
2023-05-08T05:09:41.948Z,11.72
2023-05-08T05:10:14.763Z,11.77
2023-05-08T05:10:45.829Z,11.77
2023-05-08T05:11:18.710Z,11.88
2023-05-08T05:11:49.834Z,11.88
2023-05-08T05:12:22.857Z,12.11
2023-05-08T05:12:53.918Z,12.11
2023-05-08T05:13:42.054Z,12.27
2023-05-08T05:14:13.957Z,12.27
2023-05-08T05:14:45.893Z,12.50
2023-05-08T05:15:19.772Z,12.50
2023-05-08T05:15:50.106Z,12.61
2023-05-08T05:16:22.742Z,12.61
2023-05-08T05:16:53.797Z,12.61
2023-05-08T05:17:26.738Z,12.61
2023-05-08T05:17:58.014Z,12.61
2023-05-08T05:18:30.646Z,12.61
2023-05-08T05:19:01.979Z,12.61
2023-05-08T05:19:34.642Z,12.61
2023-05-08T05:20:05.895Z,12.61
2023-05-08T05:20:38.590Z,12.61
2023-05-08T05:21:09.980Z,12.61
2023-05-08T05:21:42.672Z,12.61
2023-05-08T05:22:13.813Z,12.50
2023-05-08T05:22:46.803Z,12.50
2023-05-08T05:23:17.931Z,12.50
2023-05-08T05:23:50.689Z,12.50
2023-05-08T05:24:21.800Z,12.50
2023-05-08T05:24:54.656Z,12.50
2023-05-08T05:25:25.984Z,12.50
2023-05-08T05:26:04.481Z,12.50
2023-05-08T05:26:30.333Z,12.50
2023-05-08T05:27:01.961Z,12.50
2023-05-08T05:27:33.774Z,12.50
2023-05-08T05:28:05.748Z,12.50
2023-05-08T05:28:37.848Z,12.61
2023-05-08T05:29:09.949Z,12.61
2023-05-08T05:29:41.857Z,12.50
2023-05-08T05:30:15.029Z,12.50
2023-05-08T05:30:46.021Z,12.50
2023-05-08T05:31:17.887Z,12.50
2023-05-08T05:31:50.684Z,12.50
2023-05-08T05:32:22.007Z,12.50
2023-05-08T05:32:54.609Z,12.61
2023-05-08T05:33:25.845Z,12.61
2023-05-08T05:33:58.779Z,12.61
2023-05-08T05:34:30.080Z,12.61
2023-05-08T05:35:02.850Z,12.61
2023-05-08T05:35:33.819Z,12.61
2023-05-08T05:36:06.739Z,12.72
2023-05-08T05:36:37.841Z,12.72
2023-05-08T05:37:10.666Z,12.72
2023-05-08T05:37:41.852Z,12.72
2023-05-08T05:38:16.723Z,12.77
2023-05-08T05:38:45.914Z,12.77
2023-05-08T05:39:23.708Z,12.77
2023-05-08T05:39:50.963Z,12.77
2023-05-08T05:40:22.269Z,12.77
2023-05-08T05:40:54.736Z,12.77
2023-05-08T05:41:25.901Z,12.77
2023-05-08T05:41:58.609Z,12.77
2023-05-08T05:42:29.839Z,12.77
2023-05-08T05:43:02.853Z,12.77
2023-05-08T05:43:34.303Z,12.77
2023-05-08T05:44:08.186Z,12.77
2023-05-08T05:44:38.206Z,12.77
2023-05-08T05:45:12.099Z,12.77
2023-05-08T05:45:42.249Z,12.77
2023-05-08T05:46:14.943Z,12.77
2023-05-08T05:46:46.273Z,12.77
2023-05-08T05:47:19.245Z,12.77
2023-05-08T05:47:50.627Z,12.77
2023-05-08T05:48:22.955Z,12.77
2023-05-08T05:48:54.178Z,12.72
2023-05-08T05:49:27.131Z,12.72
2023-05-08T05:49:58.035Z,12.72
2023-05-08T05:50:31.276Z,12.72
2023-05-08T05:51:02.296Z,12.72
2023-05-08T05:51:34.919Z,12.72
2023-05-08T05:52:06.101Z,12.72
2023-05-08T05:52:39.957Z,12.72
2023-05-08T05:53:10.080Z,12.72
2023-05-08T05:53:43.194Z,12.72
2023-05-08T05:54:14.293Z,12.72
2023-05-08T05:54:46.959Z,12.72
2023-05-08T05:55:18.400Z,12.77
2023-05-08T05:55:50.934Z,12.77
2023-05-08T05:56:22.255Z,12.77
2023-05-08T05:56:55.094Z,12.77
2023-05-08T05:57:26.128Z,12.77
2023-05-08T05:57:59.216Z,12.77
2023-05-08T05:58:30.220Z,12.88
2023-05-08T05:59:02.901Z,12.88
2023-05-08T05:59:34.124Z,12.88
2023-05-08T06:00:08.533Z,12.88
2023-05-08T06:00:37.974Z,13.00
2023-05-08T06:01:10.988Z,13.00
2023-05-08T06:01:42.171Z,13.11
2023-05-08T06:02:15.151Z,13.11
2023-05-08T06:02:46.402Z,13.11
2023-05-08T06:03:19.332Z,13.11
2023-05-08T06:03:50.257Z,13.11
2023-05-08T06:04:23.084Z,13.11
2023-05-08T06:04:54.115Z,13.11
2023-05-08T06:05:27.407Z,13.11
2023-05-08T06:05:58.360Z,13.11
2023-05-08T06:06:30.976Z,13.11
2023-05-08T06:07:02.186Z,13.11
2023-05-08T06:07:35.096Z,13.11
2023-05-08T06:08:06.210Z,13.11
2023-05-08T06:08:22.232Z,13.11
2023-05-08T06:08:54.305Z,13.22
2023-05-08T06:09:26.091Z,13.22
2023-05-08T06:09:58.875Z,13.22
2023-05-08T06:10:30.609Z,13.22
2023-05-08T06:11:02.903Z,13.22
2023-05-08T06:11:34.147Z,13.22
2023-05-08T06:12:07.181Z,13.22
2023-05-08T06:12:38.016Z,13.22
2023-05-08T06:13:10.920Z,13.22
2023-05-08T06:13:42.180Z,13.22
2023-05-08T06:14:15.975Z,13.27
2023-05-08T06:14:46.062Z,13.27
2023-05-08T06:15:20.969Z,13.27
2023-05-08T06:15:50.426Z,13.27
2023-05-08T06:16:22.748Z,13.38
2023-05-08T06:16:54.152Z,13.38
2023-05-08T06:17:27.223Z,13.38
2023-05-08T06:17:58.397Z,13.38
2023-05-08T06:18:31.002Z,13.50
2023-05-08T06:19:02.280Z,13.50
2023-05-08T06:19:35.155Z,13.50
2023-05-08T06:20:06.318Z,13.50
2023-05-08T06:20:38.934Z,13.50
2023-05-08T06:21:10.226Z,13.50
2023-05-08T06:21:43.014Z,13.50
2023-05-08T06:22:14.019Z,13.50
2023-05-08T06:22:47.280Z,13.50
2023-05-08T06:23:18.170Z,13.50
2023-05-08T06:23:50.842Z,13.50
2023-05-08T06:24:22.133Z,13.50
2023-05-08T06:24:55.032Z,13.50
2023-05-08T06:25:26.499Z,13.50
2023-05-08T06:25:59.032Z,13.61
2023-05-08T06:26:30.519Z,13.61
2023-05-08T06:27:03.077Z,13.61
2023-05-08T06:27:34.007Z,13.61
2023-05-08T06:28:07.051Z,13.61
2023-05-08T06:28:38.189Z,13.61
2023-05-08T06:29:11.040Z,13.61
2023-05-08T06:29:42.154Z,13.61
2023-05-08T06:30:15.975Z,13.61
2023-05-08T06:30:46.252Z,13.61
2023-05-08T06:31:18.984Z,13.72
2023-05-08T06:31:50.241Z,13.72
2023-05-08T06:32:23.306Z,13.72
2023-05-08T06:32:54.281Z,13.72
2023-05-08T06:33:27.274Z,13.77
2023-05-08T06:33:58.241Z,13.77
2023-05-08T06:34:31.125Z,13.88
2023-05-08T06:35:02.718Z,13.88
2023-05-08T06:35:35.093Z,14.00
2023-05-08T06:36:06.233Z,14.00
2023-05-08T06:36:38.908Z,14.11
2023-05-08T06:37:10.199Z,14.11
2023-05-08T06:37:43.042Z,14.11
2023-05-08T06:38:14.313Z,14.11
2023-05-08T06:38:46.900Z,14.22
2023-05-08T06:39:18.145Z,14.22
2023-05-08T06:40:03.936Z,14.22
2023-05-08T06:40:22.501Z,14.22
2023-05-08T06:40:54.918Z,14.27
2023-05-08T06:41:26.274Z,14.27
2023-05-08T06:41:59.322Z,14.38
2023-05-08T06:42:30.298Z,14.38
2023-05-08T06:43:03.284Z,14.38
2023-05-08T06:43:34.292Z,14.38
2023-05-08T06:44:06.963Z,14.38
2023-05-08T06:44:38.273Z,14.38
2023-05-08T06:45:12.774Z,14.38
2023-05-08T06:45:42.133Z,14.38
2023-05-08T06:46:14.938Z,14.27
2023-05-08T06:46:46.464Z,14.27
2023-05-08T06:47:20.116Z,14.27
2023-05-08T06:47:50.266Z,14.27
2023-05-08T06:48:30.535Z,14.27
2023-05-08T06:48:54.262Z,14.27
2023-05-08T06:49:26.217Z,14.22
2023-05-08T06:49:58.061Z,14.22
2023-05-08T06:50:30.653Z,14.22
2023-05-08T06:51:02.313Z,14.22